Tracys Landing, Maryland
Current Conditions -  °F | °C
As of 7:54 PM on Sunday 23 Nov 2014 (Local Time) from KNAK Reporting Station
Overcast Overcast  
Wind Chill: 44°   Ceiling: 4500
Heat Index: 47°   Visibility: 10mi
Dew Point: 44°   Wind: 6mph
Humidity: 90%   Direction: 130°SE
Pressure: 30.03"   Gusts: NA
Location:  38.78°N, 76.6°W
Report Text: KNAK 240054Z AUTO 13005KT 10SM BKN045 OVC050 08/07 A3003 RMK AO2 SLP171 T00830067
Loading
Personal Weather Stations






























Interactive Weather Map New forecast layout! Learn more

10-Day Weather Forecast

Advertisements
Track Severe Weather on mobile